Time;durP1;ratioP1;P1;durP2;ratioP2;P2;SDS_P1;SDS_P2;PMS_P1;PMS_P2;Temp;Humidity;BMP_temperature;BMP_pressure;BME280_temperature;BME280_humidity;BME280_pressure;Samples;Min_cycle;Max_cycle;Signal;HPM_P1;HPM_P2
2024/01/03 00:02:00;;;;;;;1999.90;999.90;;;;;;;10.84;85.41;98469.19;10337512;28;20560;-62
2024/01/03 00:07:03;;;;;;;1999.90;999.90;;;;;;;10.82;84.94;98509.59;10336490;28;20133;-63
2024/01/03 00:12:08;;;;;;;1999.90;999.90;;;;;;;11.03;82.60;98493.63;10336098;28;20050;-63
2024/01/03 00:17:11;;;;;;;1999.90;999.90;;;;;;;10.97;82.69;98510.75;10335740;28;20409;-62
2024/01/03 00:22:14;;;;;;;1999.90;999.90;;;;;;;10.81;84.60;98519.25;10336115;28;20497;-63
2024/01/03 00:27:26;;;;;;;1999.90;999.90;;;;;;;10.74;84.58;98500.69;10336730;28;20050;-63
2024/01/03 00:32:29;;;;;;;1999.90;999.90;;;;;;;11.03;81.06;98511.94;10336247;28;20414;-62
2024/01/03 00:37:35;;;;;;;1999.90;999.90;;;;;;;10.90;82.35;98517.56;10336824;28;20101;-63
2024/01/03 00:42:37;;;;;;;1999.90;999.90;;;;;;;10.81;81.88;98555.06;10334822;28;20482;-64
2024/01/03 00:47:39;;;;;;;1999.90;999.90;;;;;;;10.90;80.39;98570.72;10318350;28;20421;-62
2024/01/03 00:52:42;;;;;;;1999.90;999.90;;;;;;;11.00;78.26;98556.78;10334658;28;20058;-63
2024/01/03 00:57:44;;;;;;;1999.90;999.90;;;;;;;10.94;78.02;98551.16;10335903;28;20050;-63
2024/01/03 01:02:46;;;;;;;1999.90;999.90;;;;;;;10.82;79.04;98564.56;10335362;28;20050;-63
2024/01/03 01:07:49;;;;;;;1999.90;999.90;;;;;;;10.68;80.45;98577.16;10335008;28;20450;-62
2024/01/03 01:12:51;;;;;;;1999.90;999.90;;;;;;;10.74;80.20;98587.06;10333812;28;20046;-62
2024/01/03 01:17:54;;;;;;;1999.90;999.90;;;;;;;10.83;79.54;98593.22;10333620;28;20133;-63
2024/01/03 01:22:56;;;;;;;1999.90;999.90;;;;;;;10.83;79.98;98592.41;10318226;28;20125;-63
2024/01/03 01:27:59;;;;;;;1999.90;999.90;;;;;;;10.80;80.35;98611.00;10334332;28;20056;-63
2024/01/03 01:33:01;;;;;;;1999.90;999.90;;;;;;;10.81;82.70;98630.97;10334034;28;20532;-62
2024/01/03 01:38:06;;;;;;;1999.90;999.90;;;;;;;10.74;82.56;98628.94;10334690;28;20050;-63
2024/01/03 01:43:09;;;;;;;1999.90;999.90;;;;;;;10.91;80.75;98631.75;10332767;28;20417;-63
2024/01/03 01:48:12;;;;;;;1999.90;999.90;;;;;;;10.77;83.20;98625.19;10334113;28;20052;-63
2024/01/03 01:53:15;;;;;;;1999.90;999.90;;;;;;;10.86;82.87;98639.22;10333700;28;20383;-63
2024/01/03 01:58:20;;;;;;;1999.90;999.90;;;;;;;10.69;83.13;98646.00;10333615;28;20440;-63
2024/01/03 02:03:22;;;;;;;1999.90;999.90;;;;;;;10.68;84.23;98655.66;10339984;28;20070;-63
2024/01/03 02:08:25;;;;;;;1999.90;999.90;;;;;;;10.74;81.99;98691.75;10341879;28;20046;-63
2024/01/03 02:13:28;;;;;;;1999.90;999.90;;;;;;;10.64;83.32;98632.53;10340618;28;20046;-63
2024/01/03 02:18:30;;;;;;;1999.90;999.90;;;;;;;10.71;82.31;98668.47;10341548;28;20050;-63
2024/01/03 02:23:33;;;;;;;1999.90;999.90;;;;;;;10.66;83.48;98669.84;10341540;28;20082;-62
2024/01/03 02:28:36;;;;;;;1999.90;999.90;;;;;;;10.65;85.26;98673.44;10341290;28;20056;-62
2024/01/03 02:33:38;;;;;;;1999.90;999.90;;;;;;;10.68;85.30;98679.22;10323665;28;20493;-62
2024/01/03 02:38:53;;;;;;;1999.90;999.90;;;;;;;10.80;85.33;98711.28;10340800;28;20050;-63
2024/01/03 02:43:56;;;;;;;1999.90;999.90;;;;;;;10.75;87.89;98669.00;10339473;28;20387;-63
2024/01/03 02:48:58;;;;;;;1999.90;999.90;;;;;;;10.63;87.15;98696.31;10340298;28;20409;-63
2024/01/03 02:54:01;;;;;;;1999.90;999.90;;;;;;;10.76;86.77;98689.00;10340111;28;20054;-63
2024/01/03 02:59:03;;;;;;;1999.90;999.90;;;;;;;10.80;86.07;98692.97;10340296;28;20074;-63
2024/01/03 03:04:05;;;;;;;1999.90;999.90;;;;;;;10.70;86.79;98698.22;10339896;28;20051;-63
2024/01/03 03:09:08;;;;;;;1999.90;999.90;;;;;;;10.82;87.97;98700.69;10354130;22;20058;-69
2024/01/03 03:14:18;;;;;;;1999.90;999.90;;;;;;;10.75;88.41;98709.09;10339651;28;20058;-70
2024/01/03 03:19:21;;;;;;;1999.90;999.90;;;;;;;10.69;89.18;98712.28;10338042;28;20050;-69
2024/01/03 03:24:23;;;;;;;1999.90;999.90;;;;;;;10.80;89.95;98718.31;10339155;28;20133;-68
2024/01/03 03:29:26;;;;;;;1999.90;999.90;;;;;;;10.86;88.33;98708.13;10337709;28;20050;-69
2024/01/03 03:34:28;;;;;;;1999.90;999.90;;;;;;;10.71;90.22;98717.38;10338873;28;20057;-69
2024/01/03 03:39:31;;;;;;;1999.90;999.90;;;;;;;10.67;90.23;98719.44;10338614;28;20042;-69
2024/01/03 03:44:33;;;;;;;1999.90;999.90;;;;;;;10.84;88.48;98728.34;10338322;28;20125;-69
2024/01/03 03:49:36;;;;;;;1999.90;999.90;;;;;;;10.67;89.99;98721.22;10338172;28;20046;-70
2024/01/03 03:54:38;;;;;;;1999.90;999.90;;;;;;;10.76;89.89;98741.34;10337889;28;20449;-70
2024/01/03 03:59:41;;;;;;;1999.90;999.90;;;;;;;10.70;91.73;98747.13;10337670;28;20046;-70
2024/01/03 04:04:44;;;;;;;1999.90;999.90;;;;;;;10.80;91.50;98742.69;10337429;28;20085;-70
2024/01/03 04:09:46;;;;;;;1999.90;999.90;;;;;;;10.76;92.10;98739.53;10336134;28;20062;-70
2024/01/03 04:14:49;;;;;;;1999.90;999.90;;;;;;;10.77;91.96;98762.13;10336138;28;20077;-70
2024/01/03 04:19:51;;;;;;;1999.90;999.90;;;;;;;10.78;92.40;98757.72;10336924;28;20126;-70
2024/01/03 04:24:53;;;;;;;1999.90;999.90;;;;;;;10.84;91.16;98745.88;10336311;28;20050;-70
2024/01/03 04:29:56;;;;;;;1999.90;999.90;;;;;;;10.74;92.52;98759.81;10336370;28;20057;-70
2024/01/03 04:34:58;;;;;;;1999.90;999.90;;;;;;;10.88;90.84;98770.81;10336435;28;20085;-70
2024/01/03 04:40:01;;;;;;;1999.90;999.90;;;;;;;10.89;90.90;98759.34;10336120;28;20121;-71
2024/01/03 04:45:04;;;;;;;1999.90;999.90;;;;;;;10.76;93.77;98767.53;10336007;28;20059;-70
2024/01/03 04:50:07;;;;;;;1999.90;999.90;;;;;;;10.34;98.69;98780.84;10334395;28;20050;-70
2024/01/03 04:55:09;;;;;;;1999.90;999.90;;;;;;;10.41;100.00;98771.50;10335465;28;20185;-70
2024/01/03 05:00:12;;;;;;;1999.90;999.90;;;;;;;10.12;100.00;98766.19;10334462;28;20053;-71
2024/01/03 05:05:15;;;;;;;1999.90;999.90;;;;;;;10.11;100.00;98775.81;10335163;28;20129;-70
2024/01/03 05:10:17;;;;;;;1999.90;999.90;;;;;;;10.03;100.00;98775.66;10335075;28;20413;-71
2024/01/03 05:15:20;;;;;;;1999.90;999.90;;;;;;;10.07;100.00;98776.22;10334943;28;20125;-70
2024/01/03 05:20:22;;;;;;;1999.90;999.90;;;;;;;9.94;100.00;98781.72;10334534;28;20494;-71
2024/01/03 05:25:25;;;;;;;1999.90;999.90;;;;;;;9.89;100.00;98771.66;10334420;28;20054;-71
2024/01/03 05:30:27;;;;;;;1999.90;999.90;;;;;;;10.02;100.00;98777.47;10334168;28;20406;-70
2024/01/03 05:35:30;;;;;;;1999.90;999.90;;;;;;;10.02;100.00;98771.41;10332608;28;20050;-71
2024/01/03 05:40:32;;;;;;;1999.90;999.90;;;;;;;9.99;100.00;98782.13;10334203;28;20056;-71
2024/01/03 05:45:35;;;;;;;1999.90;999.90;;;;;;;9.88;100.00;98795.31;10333961;28;20081;-71
2024/01/03 05:50:37;;;;;;;1999.90;999.90;;;;;;;10.00;100.00;98784.63;10333727;28;20046;-70
2024/01/03 05:55:40;;;;;;;1999.90;999.90;;;;;;;9.95;100.00;98794.66;10333758;28;20054;-71
2024/01/03 06:00:42;;;;;;;1999.90;999.90;;;;;;;9.92;100.00;98792.28;10333578;28;20397;-70
2024/01/03 06:05:44;;;;;;;1999.90;999.90;;;;;;;9.79;100.00;98799.53;10334096;28;20073;-71
2024/01/03 06:10:47;;;;;;;1999.90;999.90;;;;;;;9.74;100.00;98784.25;10333612;28;20461;-71
2024/01/03 06:15:49;;;;;;;1999.90;999.90;;;;;;;9.76;100.00;98800.63;10333635;28;20054;-70
2024/01/03 06:20:51;;;;;;;1999.90;999.90;;;;;;;9.82;100.00;98796.66;10333308;28;20058;-70
2024/01/03 06:25:54;;;;;;;1999.90;999.90;;;;;;;9.75;100.00;98792.91;10333349;28;20050;-70
2024/01/03 06:30:56;;;;;;;1999.90;999.90;;;;;;;9.73;100.00;98800.06;10333025;28;20056;-70
2024/01/03 06:35:59;;;;;;;1999.90;999.90;;;;;;;9.90;100.00;98809.06;10332135;28;20050;-70
2024/01/03 06:41:02;;;;;;;1999.90;999.90;;;;;;;9.82;100.00;98813.16;10332889;28;20437;-70
2024/01/03 06:46:05;;;;;;;1999.90;999.90;;;;;;;9.74;100.00;98826.06;10334522;28;20062;-70
2024/01/03 06:51:08;;;;;;;1999.90;999.90;;;;;;;9.72;100.00;98819.31;10340411;28;20068;-71
2024/01/03 06:56:10;;;;;;;1999.90;999.90;;;;;;;9.52;100.00;98827.06;10340164;28;20054;-69
2024/01/03 07:01:12;;;;;;;1999.90;999.90;;;;;;;9.49;100.00;98833.34;10339997;28;20057;-70
2024/01/03 07:06:15;;;;;;;1999.90;999.90;;;;;;;9.37;100.00;98815.28;10339756;28;20050;-70
2024/01/03 07:11:17;;;;;;;1999.90;999.90;;;;;;;9.20;100.00;98817.53;10339987;28;20498;-71
2024/01/03 07:16:20;;;;;;;1999.90;999.90;;;;;;;9.15;100.00;98834.53;10339577;28;20057;-70
2024/01/03 07:21:26;;;;;;;1999.90;999.90;;;;;;;9.33;100.00;98840.00;10339185;28;20046;-71
2024/01/03 07:26:29;;;;;;;1999.90;999.90;;;;;;;9.26;100.00;98847.50;10339111;28;20477;-71
2024/01/03 07:31:31;;;;;;;1999.90;999.90;;;;;;;9.17;100.00;98850.91;10338725;28;20046;-71
2024/01/03 07:36:33;;;;;;;1999.90;999.90;;;;;;;8.95;100.00;98870.91;10338810;28;20050;-71
2024/01/03 07:41:36;;;;;;;1999.90;999.90;;;;;;;8.80;100.00;98882.59;10338428;28;20487;-71
2024/01/03 07:46:40;;;;;;;1999.90;999.90;;;;;;;8.88;100.00;98878.41;10338507;28;20060;-71
2024/01/03 07:51:42;;;;;;;1999.90;999.90;;;;;;;8.52;100.00;98869.16;10338207;28;20050;-71
2024/01/03 07:56:44;;;;;;;1999.90;999.90;;;;;;;8.59;100.00;98878.16;10337485;28;20078;-71
2024/01/03 08:01:47;;;;;;;1999.90;999.90;;;;;;;8.63;100.00;98887.38;10337723;28;20086;-70
2024/01/03 08:06:49;;;;;;;1999.90;999.90;;;;;;;8.72;100.00;98891.88;10337392;28;20054;-71
2024/01/03 08:11:52;;;;;;;1999.90;999.90;;;;;;;8.86;100.00;98898.59;10337500;28;20042;-70
2024/01/03 08:16:55;;;;;;;1999.90;999.90;;;;;;;8.85;100.00;98893.50;10337069;28;20133;-70
2024/01/03 08:21:59;;;;;;;1999.90;999.90;;;;;;;8.68;100.00;98913.94;10335769;28;20049;-70
2024/01/03 08:27:01;;;;;;;1999.90;999.90;;;;;;;8.82;100.00;98912.84;10336628;28;20466;-70
2024/01/03 08:32:04;;;;;;;1999.90;999.90;;;;;;;8.96;100.00;98911.75;10336335;28;20065;-71
2024/01/03 08:37:07;;;;;;;1999.90;999.90;;;;;;;8.87;100.00;98915.06;10336308;28;20076;-70
2024/01/03 08:42:09;;;;;;;1999.90;999.90;;;;;;;8.84;100.00;98913.56;10336017;28;20512;-71
2024/01/03 08:47:13;;;;;;;1999.90;999.90;;;;;;;8.98;100.00;98916.81;10335942;28;20054;-70
2024/01/03 08:52:16;;;;;;;1999.90;999.90;;;;;;;9.00;100.00;98920.16;10334532;28;20047;-70
2024/01/03 08:57:18;;;;;;;1999.90;999.90;;;;;;;8.95;100.00;98920.50;10335758;28;20058;-70
2024/01/03 09:02:20;;;;;;;1999.90;999.90;;;;;;;9.01;100.00;98925.25;10334358;28;20052;-70
2024/01/03 09:07:23;;;;;;;1999.90;999.90;;;;;;;9.10;100.00;98928.88;10335007;28;20498;-70
2024/01/03 09:12:25;;;;;;;1999.90;999.90;;;;;;;9.05;100.00;98931.03;10334835;28;20548;-70
2024/01/03 09:17:28;;;;;;;1999.90;999.90;;;;;;;8.99;100.00;98934.97;10334997;28;20047;-71
2024/01/03 09:22:30;;;;;;;1999.90;999.90;;;;;;;9.09;100.00;98942.88;10334518;28;20121;-71
2024/01/03 09:27:32;;;;;;;1999.90;999.90;;;;;;;9.00;100.00;98949.69;10334350;28;20581;-71
2024/01/03 09:32:35;;;;;;;1999.90;999.90;;;;;;;9.07;100.00;98958.66;10334288;28;20050;-71
2024/01/03 09:37:38;;;;;;;1999.90;999.90;;;;;;;9.07;100.00;98948.22;10334212;28;20520;-70
2024/01/03 09:42:40;;;;;;;1999.90;999.90;;;;;;;9.34;100.00;98954.78;10333999;28;20050;-71
2024/01/03 09:47:43;;;;;;;1999.90;999.90;;;;;;;9.22;100.00;98948.78;10334100;28;20125;-70
2024/01/03 09:52:46;;;;;;;1999.90;999.90;;;;;;;9.19;100.00;98953.41;10332780;28;20085;-70
2024/01/03 09:57:50;;;;;;;1999.90;999.90;;;;;;;9.35;100.00;98968.69;10332494;28;20050;-70
2024/01/03 10:02:53;;;;;;;1999.90;999.90;;;;;;;9.53;100.00;98969.78;10332593;28;20050;-70
2024/01/03 10:07:55;;;;;;;1999.90;999.90;;;;;;;9.87;100.00;98967.00;10333055;28;20093;-70
2024/01/03 10:13:17;;;;;;;1999.90;999.90;;;;;;;10.19;100.00;98960.84;10332932;28;20142;-70
2024/01/03 10:18:23;;;;;;;1999.90;999.90;;;;;;;10.00;100.00;98965.00;10333203;28;20074;-70
2024/01/03 10:23:29;;;;;;;1999.90;999.90;;;;;;;10.06;100.00;98975.91;10338989;28;20121;-70
2024/01/03 10:28:32;;;;;;;1999.90;999.90;;;;;;;9.92;100.00;98972.66;10341109;28;20446;-70
2024/01/03 10:33:34;;;;;;;1999.90;999.90;;;;;;;9.86;100.00;98988.84;10341108;28;20082;-70
2024/01/03 10:38:58;;;;;;;1999.90;999.90;;;;;;;9.90;100.00;98968.50;10340876;28;20058;-69
2024/01/03 10:44:01;;;;;;;1999.90;999.90;;;;;;;10.03;100.00;98963.91;10339519;28;20047;-70
2024/01/03 10:49:06;;;;;;;1999.90;999.90;;;;;;;9.92;100.00;98970.06;10339401;28;20054;-70
2024/01/03 10:54:11;;;;;;;1999.90;999.90;;;;;;;10.00;100.00;98982.47;10340407;28;20050;-70
2024/01/03 10:59:14;;;;;;;1999.90;999.90;;;;;;;10.00;100.00;98978.09;10339116;28;20082;-69
2024/01/03 11:04:35;;;;;;;1999.90;999.90;;;;;;;9.91;100.00;98988.47;10338805;28;20413;-69
2024/01/03 11:09:37;;;;;;;1999.90;999.90;;;;;;;10.17;100.00;98999.34;10339811;28;20055;-69
2024/01/03 11:14:40;;;;;;;1999.90;999.90;;;;;;;10.16;100.00;98982.84;10338534;28;20050;-69
2024/01/03 11:19:42;;;;;;;1999.90;999.90;;;;;;;10.77;100.00;98974.13;10339582;28;20133;-69
2024/01/03 11:24:46;;;;;;;1999.90;999.90;;;;;;;10.44;100.00;98966.59;10338095;28;20126;-70
2024/01/03 11:29:48;;;;;;;1999.90;999.90;;;;;;;10.38;100.00;98973.19;10338194;28;20092;-70
2024/01/03 11:34:51;;;;;;;1999.90;999.90;;;;;;;10.60;100.00;98959.91;10337579;28;20077;-70
2024/01/03 11:39:55;;;;;;;1999.90;999.90;;;;;;;10.68;100.00;98976.75;10337398;28;20046;-70
2024/01/03 11:45:07;;;;;;;1999.90;999.90;;;;;;;10.67;100.00;98977.72;10338575;28;20125;-69
2024/01/03 11:50:12;;;;;;;1999.90;999.90;;;;;;;10.53;100.00;98971.88;10338235;28;20084;-70
2024/01/03 11:55:17;;;;;;;1999.90;999.90;;;;;;;10.46;100.00;98976.00;10338215;28;20426;-70
2024/01/03 12:00:23;;;;;;;1999.90;999.90;;;;;;;10.40;100.00;98958.19;10336652;28;20398;-70
2024/01/03 12:05:27;;;;;;;1999.90;999.90;;;;;;;10.48;100.00;98968.00;10336879;28;20057;-70
2024/01/03 12:10:30;;;;;;;1999.90;999.90;;;;;;;9.95;100.00;98971.56;10337158;28;20134;-70
2024/01/03 12:15:33;;;;;;;1999.90;999.90;;;;;;;9.75;100.00;98978.44;10336055;28;20057;-71
2024/01/03 12:20:51;;;;;;;1999.90;999.90;;;;;;;9.89;100.00;98978.16;10337049;28;20081;-71
2024/01/03 12:25:54;;;;;;;1999.90;999.90;;;;;;;10.01;100.00;98976.28;10336812;28;20549;-71
2024/01/03 12:30:58;;;;;;;1999.90;999.90;;;;;;;10.03;100.00;98949.03;10335564;28;20084;-71
2024/01/03 12:36:03;;;;;;;1999.90;999.90;;;;;;;9.81;100.00;98955.25;10336378;28;20548;-71
2024/01/03 12:41:06;;;;;;;1999.90;999.90;;;;;;;9.88;100.00;98942.50;10336306;28;20440;-71
2024/01/03 12:46:08;;;;;;;1999.90;999.90;;;;;;;9.76;100.00;98938.31;10335675;28;20135;-71
2024/01/03 12:51:11;;;;;;;1999.90;999.90;;;;;;;9.85;100.00;98925.31;10336284;28;20086;-70
2024/01/03 12:56:14;;;;;;;1999.90;999.90;;;;;;;9.48;100.00;98945.81;10335780;28;20076;-70
2024/01/03 13:01:16;;;;;;;1999.90;999.90;;;;;;;9.49;100.00;98931.81;10335468;28;20057;-70
2024/01/03 13:06:18;;;;;;;1999.90;999.90;;;;;;;9.73;100.00;98920.25;10335247;28;20457;-71
2024/01/03 13:11:21;;;;;;;1999.90;999.90;;;;;;;10.03;100.00;98922.91;10335035;28;20108;-71
2024/01/03 13:16:23;;;;;;;1999.90;999.90;;;;;;;9.73;100.00;98918.47;10335190;28;20057;-70
2024/01/03 13:21:26;;;;;;;1999.90;999.90;;;;;;;9.68;100.00;98925.88;10334796;28;20046;-70
2024/01/03 13:26:28;;;;;;;1999.90;999.90;;;;;;;9.67;100.00;98925.06;10334818;28;20060;-71
2024/01/03 13:31:32;;;;;;;1999.90;999.90;;;;;;;9.57;100.00;98931.19;10333222;28;20486;-70
2024/01/03 13:36:35;;;;;;;1999.90;999.90;;;;;;;9.51;100.00;98937.72;10333156;28;20101;-70
2024/01/03 13:41:38;;;;;;;1999.90;999.90;;;;;;;9.12;100.00;98934.81;10334369;28;20052;-70
2024/01/03 13:46:40;;;;;;;1999.90;999.90;;;;;;;9.38;100.00;98937.06;10333372;28;20050;-70
2024/01/03 13:51:43;;;;;;;1999.90;999.90;;;;;;;9.33;100.00;98944.47;10334003;28;20046;-70
2024/01/03 13:56:45;;;;;;;1999.90;999.90;;;;;;;9.30;100.00;98927.28;10333050;28;20504;-70
2024/01/03 14:01:48;;;;;;;1999.90;999.90;;;;;;;9.38;100.00;98942.28;10333783;28;20187;-70
2024/01/03 14:06:51;;;;;;;1999.90;999.90;;;;;;;9.17;100.00;98937.88;10334293;28;20125;-70
2024/01/03 14:11:54;;;;;;;1999.90;999.90;;;;;;;9.27;100.00;98938.78;10332024;28;20562;-70
2024/01/03 14:17:00;;;;;;;1999.90;999.90;;;;;;;9.00;100.00;98938.41;10333477;28;20486;-71
2024/01/03 14:22:03;;;;;;;1999.90;999.90;;;;;;;8.90;100.00;98949.59;10333371;28;20074;-71
2024/01/03 14:27:06;;;;;;;1999.90;999.90;;;;;;;8.78;100.00;98947.16;10333553;28;20061;-71
2024/01/03 14:32:08;;;;;;;1999.90;999.90;;;;;;;8.71;100.00;98946.81;10331929;28;20513;-71
2024/01/03 14:37:17;;;;;;;1999.90;999.90;;;;;;;8.47;100.00;98928.66;10333122;28;20097;-71
2024/01/03 14:42:23;;;;;;;1999.90;999.90;;;;;;;8.55;100.00;98937.53;10333085;28;20413;-71
2024/01/03 14:47:25;;;;;;;1999.90;999.90;;;;;;;8.49;100.00;98931.97;10331891;28;20129;-72
2024/01/03 14:52:28;;;;;;;1999.90;999.90;;;;;;;8.59;100.00;98924.28;10332930;28;20074;-71
2024/01/03 14:57:30;;;;;;;1999.90;999.90;;;;;;;8.50;100.00;98920.59;10332708;28;20054;-71
2024/01/03 15:02:32;;;;;;;1999.90;999.90;;;;;;;8.60;100.00;98923.31;10331793;28;20065;-71
2024/01/03 15:07:35;;;;;;;1999.90;999.90;;;;;;;8.44;100.00;98919.31;10334962;28;20055;-71
2024/01/03 15:12:37;;;;;;;1999.90;999.90;;;;;;;8.42;100.00;98915.13;10338276;28;20050;-71
2024/01/03 15:17:39;;;;;;;1999.90;999.90;;;;;;;8.70;100.00;98919.84;10339455;28;20508;-71
2024/01/03 15:22:43;;;;;;;1999.90;999.90;;;;;;;8.76;100.00;98915.94;10346784;23;20145;-72
2024/01/03 15:27:46;;;;;;;1999.90;999.90;;;;;;;8.33;100.00;98921.91;10339265;28;20074;-72
2024/01/03 15:32:49;;;;;;;1999.90;999.90;;;;;;;8.37;100.00;98924.16;10338730;28;20482;-71
2024/01/03 15:37:52;;;;;;;1999.90;999.90;;;;;;;8.20;100.00;98911.59;10338931;28;20101;-71
2024/01/03 15:42:56;;;;;;;1999.90;999.90;;;;;;;8.36;100.00;98900.81;10338862;28;20070;-72
2024/01/03 15:47:59;;;;;;;1999.90;999.90;;;;;;;8.29;100.00;98891.81;10338323;28;20190;-72
2024/01/03 15:53:01;;;;;;;1999.90;999.90;;;;;;;8.36;100.00;98888.59;10338468;28;20046;-71
2024/01/03 15:58:04;;;;;;;1999.90;999.90;;;;;;;8.55;100.00;98882.78;10338198;28;20057;-72
2024/01/03 16:03:07;;;;;;;1999.90;999.90;;;;;;;8.61;100.00;98883.22;10337769;28;20060;-72
2024/01/03 16:08:10;;;;;;;1999.90;999.90;;;;;;;8.42;100.00;98870.81;10336508;28;20054;-72
2024/01/03 16:13:12;;;;;;;1999.90;999.90;;;;;;;8.63;100.00;98863.09;10336091;28;20086;-72
2024/01/03 16:18:14;;;;;;;1999.90;999.90;;;;;;;8.67;100.00;98869.72;10335430;28;20050;-72
2024/01/03 16:23:17;;;;;;;1999.90;999.90;;;;;;;8.70;100.00;98872.06;10335645;28;20061;-72
2024/01/03 16:28:19;;;;;;;1999.90;999.90;;;;;;;8.61;100.00;98873.66;10335861;28;20066;-71
2024/01/03 16:33:22;;;;;;;1999.90;999.90;;;;;;;8.72;100.00;98868.41;10335401;28;20134;-71
2024/01/03 16:38:24;;;;;;;1999.90;999.90;;;;;;;8.68;100.00;98866.16;10336318;28;20051;-71
2024/01/03 16:43:27;;;;;;;1999.90;999.90;;;;;;;8.49;100.00;98867.63;10336387;28;20486;-71
2024/01/03 16:48:29;;;;;;;1999.90;999.90;;;;;;;8.64;100.00;98859.50;10335928;28;20082;-71
2024/01/03 16:53:32;;;;;;;1999.90;999.90;;;;;;;8.62;100.00;98861.41;10335749;28;20524;-71
2024/01/03 16:58:35;;;;;;;1999.90;999.90;;;;;;;8.62;100.00;98861.41;10318846;28;20101;-71
2024/01/03 17:03:37;;;;;;;1999.90;999.90;;;;;;;8.50;100.00;98858.84;10334683;28;20050;-72
2024/01/03 17:08:39;;;;;;;1999.90;999.90;;;;;;;8.47;100.00;98860.88;10335438;28;20454;-71
2024/01/03 17:13:42;;;;;;;1999.90;999.90;;;;;;;8.68;100.00;98876.59;10333721;28;20050;-71
2024/01/03 17:18:51;;;;;;;1999.90;999.90;;;;;;;8.77;100.00;98877.63;10335069;28;20056;-71
2024/01/03 17:23:54;;;;;;;1999.90;999.90;;;;;;;8.73;100.00;98875.25;10333567;28;20457;-71
2024/01/03 17:28:58;;;;;;;1999.90;999.90;;;;;;;8.63;100.00;98876.13;10333653;28;20142;-71
2024/01/03 17:34:01;;;;;;;1999.90;999.90;;;;;;;8.53;100.00;98883.84;10334434;28;20042;-71
2024/01/03 17:39:03;;;;;;;1999.90;999.90;;;;;;;8.50;100.00;98876.28;10333387;28;20054;-71
2024/01/03 17:44:06;;;;;;;1999.90;999.90;;;;;;;8.46;100.00;98883.50;10332964;28;20445;-71
2024/01/03 17:49:08;;;;;;;1999.90;999.90;;;;;;;8.47;100.00;98889.56;10334102;28;20065;-71
2024/01/03 17:54:11;;;;;;;1999.90;999.90;;;;;;;8.50;100.00;98886.72;10332901;28;20050;-71
2024/01/03 17:59:16;;;;;;;1999.90;999.90;;;;;;;8.50;100.00;98895.34;10334385;28;20056;-71
2024/01/03 18:04:18;;;;;;;1999.90;999.90;;;;;;;8.64;100.00;98893.44;10333936;28;20046;-71
2024/01/03 18:09:21;;;;;;;1999.90;999.90;;;;;;;8.55;100.00;98897.59;10332462;28;20050;-71
2024/01/03 18:14:23;;;;;;;1999.90;999.90;;;;;;;8.52;100.00;98898.69;10333514;28;20529;-70
2024/01/03 18:19:26;;;;;;;1999.90;999.90;;;;;;;8.44;100.00;98906.28;10333423;28;20050;-70
2024/01/03 18:24:37;;;;;;;1999.90;999.90;;;;;;;8.51;100.00;98909.25;10331952;28;20130;-70
2024/01/03 18:29:41;;;;;;;;;;;;;;;8.62;100.00;98913.59;10332705;28;20054;-70
2024/01/03 18:34:43;;;;;;;1999.90;999.90;;;;;;;8.51;100.00;98912.66;10331864;28;19938;-70
2024/01/03 18:39:47;;;;;;;1999.90;999.90;;;;;;;8.53;100.00;98905.53;10332237;28;20100;-70
2024/01/03 18:44:49;;;;;;;1999.90;999.90;;;;;;;8.44;100.00;98927.16;10339007;28;20057;-70
2024/01/03 18:49:52;;;;;;;1999.90;999.90;;;;;;;8.61;100.00;98922.34;10340498;28;20148;-70
2024/01/03 18:54:56;;;;;;;1999.90;999.90;;;;;;;8.59;100.00;98934.69;10340482;28;20055;-70
2024/01/03 18:59:58;;;;;;;1999.90;999.90;;;;;;;8.69;100.00;98940.84;10339419;28;20061;-70
2024/01/03 19:05:01;;;;;;;1999.90;999.90;;;;;;;8.66;100.00;98944.53;10339063;28;20046;-70
2024/01/03 19:10:04;;;;;;;1999.90;999.90;;;;;;;8.69;100.00;98959.13;10339875;28;20058;-70
2024/01/03 19:15:07;;;;;;;1999.90;999.90;;;;;;;8.48;100.00;98964.25;10339686;28;20053;-71
2024/01/03 19:20:10;;;;;;;1999.90;999.90;;;;;;;8.39;100.00;98976.19;10339469;28;20065;-71
2024/01/03 19:25:13;;;;;;;1999.90;999.90;;;;;;;8.42;100.00;98973.31;10339170;28;20133;-71
2024/01/03 19:30:16;;;;;;;1999.90;999.90;;;;;;;8.39;100.00;98978.81;10338267;28;20053;-71
2024/01/03 19:35:18;;;;;;;1999.90;999.90;;;;;;;8.42;100.00;98993.38;10337659;28;20050;-71
2024/01/03 19:40:20;;;;;;;1999.90;999.90;;;;;;;8.36;100.00;99007.72;10337857;28;20094;-71
2024/01/03 19:45:23;;;;;;;1999.90;999.90;;;;;;;8.36;100.00;98999.91;10338446;28;20046;-71
2024/01/03 19:50:25;;;;;;;1999.90;999.90;;;;;;;8.43;100.00;99016.75;10338706;28;20133;-71
2024/01/03 19:55:28;;;;;;;1999.90;999.90;;;;;;;8.44;100.00;99008.00;10336985;28;20053;-71
2024/01/03 20:00:30;;;;;;;1999.90;999.90;;;;;;;8.37;100.00;99007.59;10336648;28;20413;-71
2024/01/03 20:05:33;;;;;;;1999.90;999.90;;;;;;;8.30;100.00;99006.41;10337904;28;20050;-71
2024/01/03 20:10:36;;;;;;;1999.90;999.90;;;;;;;8.38;100.00;99005.81;10337371;28;20058;-72
2024/01/03 20:15:38;;;;;;;1999.90;999.90;;;;;;;8.39;100.00;99015.31;10336360;28;20182;-71
2024/01/03 20:20:41;;;;;;;1999.90;999.90;;;;;;;8.70;100.00;99016.41;10335931;28;20058;-71
2024/01/03 20:25:43;;;;;;;1999.90;999.90;;;;;;;8.24;100.00;99021.69;10336856;28;20058;-71
2024/01/03 20:30:46;;;;;;;1999.90;999.90;;;;;;;8.46;100.00;99031.34;10336583;28;20145;-71
2024/01/03 20:35:48;;;;;;;1999.90;999.90;;;;;;;8.38;100.00;99044.94;10335617;28;20445;-71
2024/01/03 20:40:51;;;;;;;1999.90;999.90;;;;;;;8.35;100.00;99039.94;10336406;28;20065;-71
2024/01/03 20:45:53;;;;;;;1999.90;999.90;;;;;;;8.17;100.00;99056.06;10336102;28;20077;-71
2024/01/03 20:50:56;;;;;;;1999.90;999.90;;;;;;;8.23;100.00;99059.97;10336051;28;20054;-71
2024/01/03 20:55:59;;;;;;;1999.90;999.90;;;;;;;8.33;100.00;99073.97;10335695;28;20501;-71
2024/01/03 21:01:01;;;;;;;1999.90;999.90;;;;;;;8.42;100.00;99077.66;10335524;28;20050;-71
2024/01/03 21:06:08;;;;;;;1999.90;999.90;;;;;;;8.35;100.00;99086.88;10317940;28;20101;-71
2024/01/03 21:11:10;;;;;;;1999.90;999.90;;;;;;;8.36;100.00;99092.00;10335153;28;20062;-71
2024/01/03 21:16:16;;;;;;;1999.90;999.90;;;;;;;8.26;100.00;99098.84;10335343;28;20096;-71
2024/01/03 21:21:18;;;;;;;1999.90;999.90;;;;;;;8.37;100.00;99095.41;10334702;28;20505;-71
2024/01/03 21:26:21;;;;;;;1999.90;999.90;;;;;;;8.38;100.00;99103.13;10334728;28;20061;-72
2024/01/03 21:31:23;;;;;;;1999.90;999.90;;;;;;;8.37;100.00;99104.09;10334573;28;20051;-72
2024/01/03 21:36:26;;;;;;;1999.90;999.90;;;;;;;8.31;100.00;99109.75;10334136;28;20046;-71
2024/01/03 21:41:28;;;;;;;1999.90;999.90;;;;;;;8.19;100.00;99121.13;10334352;28;20066;-71
2024/01/03 21:46:31;;;;;;;1999.90;999.90;;;;;;;8.27;100.00;99123.13;10334008;28;20050;-71
2024/01/03 21:51:33;;;;;;;1999.90;999.90;;;;;;;8.48;100.00;99136.38;10334242;28;20050;-71
2024/01/03 21:56:38;;;;;;;1999.90;999.90;;;;;;;8.43;100.00;99149.75;10316893;28;20057;-71
2024/01/03 22:01:46;;;;;;;1999.90;999.90;;;;;;;8.54;100.00;99144.59;10332612;28;20054;-71
2024/01/03 22:06:48;;;;;;;1999.90;999.90;;;;;;;8.52;100.00;99156.91;10332535;28;20405;-71
2024/01/03 22:11:56;;;;;;;1999.90;999.90;;;;;;;8.41;100.00;99161.25;10333367;28;20054;-71